Time;durP1;ratioP1;P1;durP2;ratioP2;P2;SDS_P1;SDS_P2;PMS_P1;PMS_P2;Temp;Humidity;BMP_temperature;BMP_pressure;BME280_temperature;BME280_humidity;BME280_pressure;Samples;Min_cycle;Max_cycle;Signal;HPM_P1;HPM_P2
2021/08/13 00:00:11;;;;;;;10.77;7.78;;;;;;;20.88;82.24;98996.59;5014889;27;102917;-65
2021/08/13 00:02:39;;;;;;;7.95;7.25;;;;;;;20.83;82.78;98994.38;5018645;27;103427;-65
2021/08/13 00:05:09;;;;;;;10.70;7.47;;;;;;;21.09;81.07;98994.25;5016525;27;103192;-65
2021/08/13 00:07:38;;;;;;;7.00;6.38;;;;;;;21.05;81.33;99003.63;5009440;27;103020;-64
2021/08/13 00:10:09;;;;;;;7.85;7.05;;;;;;;21.19;81.20;98992.22;5018073;27;102738;-65
2021/08/13 00:12:37;;;;;;;6.80;6.10;;;;;;;21.28;81.03;98996.53;5015490;27;103355;-65
2021/08/13 00:15:07;;;;;;;7.70;6.93;;;;;;;21.29;80.88;98984.81;5018123;27;103279;-64
2021/08/13 00:17:35;;;;;;;6.32;5.72;;;;;;;21.28;80.73;98981.28;5017322;27;103020;-65
2021/08/13 00:20:04;;;;;;;10.57;8.35;;;;;;;21.07;82.47;98972.94;5016116;27;102738;-64
2021/08/13 00:22:32;;;;;;;9.30;8.43;;;;;;;20.93;83.07;98980.81;5013313;27;103193;-64
2021/08/13 00:25:01;;;;;;;7.75;7.05;;;;;;;20.98;82.86;98981.97;5015215;27;103221;-64
2021/08/13 00:27:30;;;;;;;12.38;9.43;;;;;;;20.99;81.88;98988.19;5014438;27;102617;-64
2021/08/13 00:29:58;;;;;;;10.10;9.10;;;;;;;20.84;83.35;98985.34;5016338;27;102564;-64
2021/08/13 00:32:27;;;;;;;10.77;9.73;;;;;;;20.75;83.23;98991.72;5016124;27;103363;-64
2021/08/13 00:34:55;;;;;;;10.00;8.70;;;;;;;20.78;83.25;98988.69;5018133;27;103380;-64
2021/08/13 00:37:24;;;;;;;8.60;7.78;;;;;;;20.84;83.33;98990.72;5012268;27;103286;-64
2021/08/13 00:39:54;;;;;;;10.20;9.30;;;;;;;20.75;83.06;98995.25;5013571;27;102725;-64
2021/08/13 00:42:25;;;;;;;10.00;9.00;;;;;;;20.63;84.22;99003.81;5016027;27;103317;-64
2021/08/13 00:44:53;;;;;;;8.93;8.02;;;;;;;20.74;83.80;99006.16;5003030;27;103446;-65
2021/08/13 00:47:23;;;;;;;8.98;7.55;;;;;;;20.80;83.11;98998.25;5003647;27;102662;-65
2021/08/13 00:50:12;;;;;;;10.77;7.82;;;;;;;20.70;83.91;98996.75;5003420;27;102811;-72
2021/08/13 00:52:45;;;;;;;9.73;8.82;;;;;;;20.51;85.26;98991.72;5019866;27;103292;-72
2021/08/13 00:55:17;;;;;;;14.45;9.95;;;;;;;20.43;84.70;98994.41;5007961;27;103239;-72
2021/08/13 00:57:56;;;;;;;9.25;8.27;;;;;;;20.43;85.28;98989.03;5017487;27;102728;-72
2021/08/13 01:00:36;;;;;;;12.18;10.43;;;;;;;20.30;86.57;98994.03;5020297;27;102702;-72
2021/08/13 01:03:06;;;;;;;12.93;9.77;;;;;;;20.17;87.52;99003.38;5022505;27;103202;-72
2021/08/13 01:05:37;;;;;;;12.52;11.32;;;;;;;20.05;88.14;99004.66;5002866;27;103470;-64
2021/08/13 01:08:06;;;;;;;12.18;10.90;;;;;;;20.23;86.97;98997.34;4999592;27;102639;-64
2021/08/13 01:10:42;;;;;;;11.98;10.77;;;;;;;20.22;87.19;98992.97;5001071;27;102814;-64
2021/08/13 01:13:14;;;;;;;15.68;12.32;;;;;;;20.13;86.65;98999.31;5003794;27;103917;-65
2021/08/13 01:15:53;;;;;;;10.65;9.57;;;;;;;20.39;86.11;98995.72;5001386;27;103515;-64
2021/08/13 01:18:30;;;;;;;8.60;7.80;;;;;;;20.49;85.38;98999.09;5022439;27;102721;-64
2021/08/13 01:21:22;;;;;;;10.55;9.60;;;;;;;20.51;85.99;98995.25;5013468;27;102787;-66
2021/08/13 01:23:59;;;;;;;10.02;9.10;;;;;;;20.58;84.52;98998.09;5009017;27;103589;-64
2021/08/13 01:26:31;;;;;;;12.63;10.07;;;;;;;20.64;84.32;99010.84;5015697;27;103219;-65
2021/08/13 01:29:12;;;;;;;12.52;11.40;;;;;;;20.56;84.76;99006.31;5000994;27;102779;-71
2021/08/13 01:31:49;;;;;;;9.40;8.50;;;;;;;20.60;84.41;99006.81;5006027;27;102821;-72
2021/08/13 01:34:22;;;;;;;9.48;8.68;;;;;;;20.61;84.91;99003.13;5009424;27;103713;-65
2021/08/13 01:36:52;;;;;;;13.50;9.60;;;;;;;20.68;84.30;99005.00;5021157;27;103336;-64
2021/08/13 01:39:22;;;;;;;11.05;9.45;;;;;;;20.65;84.82;99012.53;5009270;27;102792;-65
2021/08/13 01:41:51;;;;;;;9.60;8.70;;;;;;;20.64;85.09;99013.53;5007276;27;102864;-65
2021/08/13 01:44:20;;;;;;;8.43;7.63;;;;;;;20.69;84.30;99019.22;5014955;27;103283;-65
2021/08/13 01:46:49;;;;;;;7.57;6.97;;;;;;;20.75;83.82;99018.56;5005502;27;103240;-72
2021/08/13 01:49:19;;;;;;;7.53;6.82;;;;;;;20.80;83.98;99021.56;5013059;27;102609;-72
2021/08/13 01:51:52;;;;;;;10.43;9.02;;;;;;;20.71;84.68;99026.13;5009264;27;103026;-72
2021/08/13 01:54:22;;;;;;;9.60;8.60;;;;;;;20.40;86.63;99021.56;5007192;27;104913;-64
2021/08/13 01:56:51;;;;;;;10.95;9.95;;;;;;;20.24;86.09;99017.81;5001783;27;103326;-64
2021/08/13 01:59:19;;;;;;;10.75;9.73;;;;;;;20.26;87.64;99016.84;5008389;27;103089;-72
2021/08/13 02:01:49;;;;;;;11.32;10.00;;;;;;;20.22;87.60;99014.44;5008106;27;103214;-73
2021/08/13 02:04:19;;;;;;;9.95;9.00;;;;;;;20.36;86.75;99026.41;5004129;27;104098;-73
2021/08/13 02:06:53;;;;;;;11.25;10.05;;;;;;;20.43;86.72;99023.91;5005474;27;103172;-72
2021/08/13 02:09:22;;;;;;;11.38;10.27;;;;;;;20.29;86.66;99033.44;5005310;27;102673;-73
2021/08/13 02:11:53;;;;;;;12.00;10.70;;;;;;;20.20;87.37;99023.66;5012473;27;103121;-72
2021/08/13 02:14:21;;;;;;;9.35;8.55;;;;;;;20.34;87.37;99022.22;5001965;27;103310;-72
2021/08/13 02:16:54;;;;;;;8.80;8.02;;;;;;;20.36;87.44;99023.72;5007312;27;103044;-71
2021/08/13 02:19:32;;;;;;;10.95;9.80;;;;;;;20.27;87.12;99019.34;5007078;27;102810;-72
2021/08/13 02:22:04;;;;;;;9.43;8.52;;;;;;;20.35;87.27;99011.31;5005010;27;104148;-72
2021/08/13 02:24:32;;;;;;;9.57;7.80;;;;;;;20.46;86.43;99013.69;5006590;27;103322;-65
2021/08/13 02:27:06;;;;;;;10.95;9.23;;;;;;;20.42;86.88;99016.84;5025453;27;103414;-65
2021/08/13 02:29:35;;;;;;;11.68;10.38;;;;;;;20.39;87.22;99015.34;5004218;27;102594;-63
2021/08/13 02:32:08;;;;;;;16.20;10.90;;;;;;;20.38;88.19;99007.47;5018200;27;103064;-63
2021/08/13 02:34:37;;;;;;;13.38;11.52;;;;;;;20.15;89.79;99009.91;5005706;27;103376;-64
2021/08/13 02:37:14;;;;;;;9.82;8.82;;;;;;;20.24;89.21;99011.59;5003567;27;103400;-63
2021/08/13 02:39:48;;;;;;;8.82;8.02;;;;;;;20.44;87.60;99004.94;5009965;27;102699;-63
2021/08/13 02:42:24;;;;;;;8.00;7.20;;;;;;;20.58;87.02;99000.75;5004322;27;102784;-63
2021/08/13 02:44:59;;;;;;;6.95;6.28;;;;;;;20.66;86.50;99006.16;4998290;27;105532;-63
2021/08/13 02:47:30;;;;;;;7.85;6.45;;;;;;;20.70;86.71;98999.44;5006881;27;103444;-65
2021/08/13 02:50:03;;;;;;;7.97;7.25;;;;;;;20.71;86.66;98995.75;5014162;27;102980;-64
2021/08/13 02:52:51;;;;;;;12.95;10.60;;;;;;;20.52;88.15;98990.72;5013656;27;102772;-64
2021/08/13 02:55:25;;;;;;;11.88;10.13;;;;;;;20.08;92.05;98998.13;5015183;27;103353;-64
2021/08/13 02:58:01;;;;;;;10.68;9.57;;;;;;;20.12;91.87;98999.50;4995911;27;103224;-63
2021/08/13 03:00:32;;;;;;;10.07;9.18;;;;;;;20.13;92.46;99006.53;5007070;27;102964;-63
2021/08/13 03:03:00;;;;;;;13.20;11.80;;;;;;;19.91;94.05;98994.56;5011526;27;102859;-71
2021/08/13 03:05:30;;;;;;;12.15;10.77;;;;;;;20.01;93.50;98984.56;5007850;27;103483;-71
2021/08/13 03:08:06;;;;;;;9.50;8.60;;;;;;;20.27;91.27;98989.00;5003598;27;103266;-71
2021/08/13 03:10:34;;;;;;;8.38;7.57;;;;;;;20.50;90.33;98998.06;5017533;27;102677;-64
2021/08/13 03:13:03;;;;;;;7.78;7.07;;;;;;;20.65;88.73;99012.53;5015578;27;102625;-65
2021/08/13 03:15:31;;;;;;;6.78;6.20;;;;;;;20.74;88.64;99006.16;5004040;27;103289;-65
2021/08/13 03:18:00;;;;;;;10.30;9.30;;;;;;;20.64;88.24;99010.84;5006501;27;103246;-70
2021/08/13 03:20:28;;;;;;;11.00;9.32;;;;;;;20.66;89.95;99015.03;5014010;27;102626;-73
2021/08/13 03:23:08;;;;;;;9.85;8.77;;;;;;;20.80;88.94;99011.69;5010958;27;102772;-72
2021/08/13 03:25:37;;;;;;;13.95;11.23;;;;;;;20.60;90.42;99010.31;5005346;27;104566;-69
2021/08/13 03:28:11;;;;;;;13.32;11.95;;;;;;;20.38;91.56;99016.34;5019554;27;103275;-64
2021/08/13 03:30:41;;;;;;;12.63;11.32;;;;;;;20.12;94.20;99024.50;5014040;27;103025;-64
2021/08/13 03:33:15;;;;;;;14.27;12.18;;;;;;;20.00;95.70;99023.09;5002792;27;103172;-64
2021/08/13 03:35:45;;;;;;;14.05;12.63;;;;;;;19.94;96.91;99031.78;5015494;27;105190;-64
2021/08/13 03:38:15;;;;;;;11.95;10.75;;;;;;;20.19;94.92;99033.53;5012820;27;103438;-70
2021/08/13 03:40:43;;;;;;;10.48;9.27;;;;;;;20.41;92.86;99023.22;5017437;27;103029;-64
2021/08/13 03:43:12;;;;;;;8.57;7.78;;;;;;;20.57;91.92;99028.63;4994669;27;104293;-64
2021/08/13 03:45:42;;;;;;;13.60;11.50;;;;;;;20.50;91.77;99030.28;5003233;27;105344;-70
2021/08/13 03:48:11;;;;;;;10.52;9.52;;;;;;;20.40;92.57;99032.28;5002579;27;103274;-65
2021/08/13 03:50:39;;;;;;;14.00;12.23;;;;;;;20.04;96.22;99039.72;5013430;27;102633;-70
2021/08/13 03:53:07;;;;;;;11.75;10.48;;;;;;;20.02;96.36;99042.53;5006644;27;104131;-72
2021/08/13 03:55:38;;;;;;;13.30;11.73;;;;;;;20.03;96.79;99043.38;5022792;27;106141;-70
2021/08/13 03:58:07;;;;;;;11.50;10.43;;;;;;;20.20;94.40;99045.97;5014365;27;103164;-70
2021/08/13 04:00:35;;;;;;;8.82;8.02;;;;;;;20.40;92.46;99057.28;5022011;27;102775;-70
2021/08/13 04:03:04;;;;;;;8.55;7.75;;;;;;;20.57;90.79;99063.53;5020287;27;102711;-70
2021/08/13 04:05:35;;;;;;;8.23;7.38;;;;;;;20.66;90.23;99057.97;5018846;27;103283;-70
2021/08/13 04:08:03;;;;;;;7.53;6.60;;;;;;;20.73;90.39;99068.91;5036916;27;103157;-64
2021/08/13 04:10:32;;;;;;;6.95;6.30;;;;;;;20.77;89.96;99062.22;5005068;27;102689;-64
2021/08/13 04:13:03;;;;;;;9.32;8.23;;;;;;;20.78;89.95;99061.19;4999633;27;103933;-65
2021/08/13 04:15:38;;;;;;;9.35;8.45;;;;;;;20.54;91.54;99061.16;5011799;27;104108;-64
2021/08/13 04:18:07;;;;;;;7.95;7.15;;;;;;;20.65;90.89;99069.75;5008332;27;103237;-64
2021/08/13 04:20:35;;;;;;;7.72;7.03;;;;;;;20.74;90.42;99065.22;5001648;27;102712;-65
2021/08/13 04:23:05;;;;;;;6.90;6.20;;;;;;;20.81;89.64;99066.22;5013209;27;103884;-65
2021/08/13 04:25:33;;;;;;;7.30;6.68;;;;;;;20.83;89.08;99058.84;5009486;27;104202;-64
2021/08/13 04:28:03;;;;;;;10.70;8.73;;;;;;;20.82;89.05;99062.53;5007067;27;103340;-64
2021/08/13 04:30:31;;;;;;;8.35;7.53;;;;;;;20.84;89.24;99057.84;5019207;27;102716;-65
2021/08/13 04:32:59;;;;;;;8.70;7.30;;;;;;;20.86;89.06;99052.28;5002213;27;103141;-65
2021/08/13 04:35:27;;;;;;;8.95;8.00;;;;;;;20.87;88.93;99057.50;5021661;27;105461;-65
2021/08/13 04:37:58;;;;;;;9.77;8.85;;;;;;;20.78;90.47;99061.19;5008128;27;103249;-65
2021/08/13 04:40:26;;;;;;;11.55;10.35;;;;;;;20.72;88.99;99056.47;5022112;27;102696;-65
2021/08/13 04:42:56;;;;;;;9.00;8.00;;;;;;;20.70;89.85;99059.34;5006694;27;102812;-66
2021/08/13 04:45:26;;;;;;;11.65;9.65;;;;;;;20.65;91.40;99076.94;5007293;27;103303;-67
2021/08/13 04:47:55;;;;;;;8.52;7.82;;;;;;;20.68;90.76;99076.63;5000932;27;103421;-67
2021/08/13 04:50:24;;;;;;;11.88;10.77;;;;;;;20.75;89.37;99074.94;5001355;27;102841;-67
2021/08/13 04:53:09;;;;;;;8.68;7.85;;;;;;;20.67;90.85;99067.72;4997800;27;104713;-66
2021/08/13 04:55:38;;;;;;;11.60;10.60;;;;;;;20.75;90.30;99074.94;5004408;27;106166;-68
2021/08/13 04:58:07;;;;;;;10.30;9.13;;;;;;;20.51;91.46;99082.97;5003187;27;103657;-76
2021/08/13 05:00:37;;;;;;;11.77;10.32;;;;;;;20.50;90.74;99082.13;5029428;27;102566;-77
2021/08/13 05:03:10;;;;;;;11.45;9.80;;;;;;;20.52;91.15;99090.03;5008696;27;103074;-76
2021/08/13 05:05:47;;;;;;;12.75;11.38;;;;;;;20.31;92.85;99090.47;5010108;27;103346;-75
2021/08/13 05:08:15;;;;;;;12.00;10.27;;;;;;;20.39;93.29;99097.69;5021358;27;103237;-76
2021/08/13 05:10:45;;;;;;;10.75;9.75;;;;;;;20.20;94.74;99088.03;5009408;27;102763;-77
2021/08/13 05:13:17;;;;;;;13.50;12.10;;;;;;;19.99;96.03;99103.69;5009643;27;104214;-75
2021/08/13 05:15:47;;;;;;;15.70;11.70;;;;;;;19.83;97.58;99101.78;5007272;27;103393;-77
2021/08/13 05:18:16;;;;;;;13.98;12.55;;;;;;;19.71;98.79;99108.41;5010164;27;104008;-77
2021/08/13 05:20:45;;;;;;;13.57;12.18;;;;;;;19.42;100.00;99097.19;5013154;27;102719;-77
2021/08/13 05:23:14;;;;;;;13.68;12.40;;;;;;;19.45;100.00;99096.88;5014545;27;103425;-76
2021/08/13 05:25:42;;;;;;;14.43;12.68;;;;;;;19.70;99.02;99101.38;5023477;27;102834;-77
2021/08/13 05:28:10;;;;;;;12.73;11.63;;;;;;;19.69;99.48;99099.69;5019668;27;103042;-74
2021/08/13 05:30:40;;;;;;;13.70;11.63;;;;;;;19.82;97.64;99107.31;5027327;27;102715;-74
2021/08/13 05:33:09;;;;;;;8.77;8.00;;;;;;;20.10;97.12;99109.63;5001558;27;104309;-75
2021/08/13 05:35:39;;;;;;;8.90;8.10;;;;;;;20.37;94.85;99105.06;5008240;27;102730;-76
2021/08/13 05:38:09;;;;;;;11.13;10.13;;;;;;;20.43;94.63;99096.38;5011052;27;103252;-67
2021/08/13 05:40:41;;;;;;;10.43;9.43;;;;;;;20.35;95.61;99101.72;5000005;27;102685;-75
2021/08/13 05:43:11;;;;;;;10.20;9.27;;;;;;;20.53;94.02;99102.41;5006521;27;102798;-75
2021/08/13 05:45:41;;;;;;;9.65;8.73;;;;;;;20.71;92.95;99114.72;5004085;27;104100;-67
2021/08/13 05:48:11;;;;;;;8.20;7.57;;;;;;;20.86;92.73;99100.63;5003231;27;103455;-67
2021/08/13 05:50:39;;;;;;;9.90;8.90;;;;;;;20.88;91.35;99109.38;5014210;27;102611;-67
2021/08/13 05:53:10;;;;;;;11.35;9.90;;;;;;;20.97;90.52;99103.81;5002932;27;104565;-76
2021/08/13 05:55:40;;;;;;;8.93;8.00;;;;;;;21.12;89.95;99107.56;4997504;27;103183;-75
2021/08/13 05:58:09;;;;;;;9.00;8.18;;;;;;;21.33;89.58;99101.69;5011547;27;103242;-63
2021/08/13 06:00:37;;;;;;;9.88;8.95;;;;;;;21.54;88.71;99101.16;5013715;27;102606;-63
2021/08/13 06:03:08;;;;;;;9.00;8.20;;;;;;;21.63;88.34;99100.13;5011442;27;104015;-62
2021/08/13 06:05:45;;;;;;;10.30;9.23;;;;;;;21.79;87.36;99100.94;5017312;27;103214;-62
2021/08/13 06:08:17;;;;;;;8.70;7.80;;;;;;;21.97;86.80;99095.38;5000762;27;103212;-62
2021/08/13 06:10:46;;;;;;;7.60;6.90;;;;;;;22.02;86.29;99090.31;5003272;27;103054;-61
2021/08/13 06:13:16;;;;;;;9.60;8.75;;;;;;;22.18;85.58;99100.16;5002611;27;102872;-63
2021/08/13 06:15:46;;;;;;;8.60;7.80;;;;;;;22.30;85.33;99094.22;5003088;27;105617;-64
2021/08/13 06:18:15;;;;;;;8.15;7.35;;;;;;;22.52;84.96;99096.13;5001324;27;103314;-62
2021/08/13 06:20:43;;;;;;;9.10;7.40;;;;;;;22.63;84.51;99110.19;5008018;27;103090;-62
2021/08/13 06:23:17;;;;;;;8.35;7.55;;;;;;;22.68;83.71;99114.06;4997534;27;103054;-60
2021/08/13 06:25:45;;;;;;;10.02;9.18;;;;;;;22.72;83.75;99115.38;5018096;27;103260;-60
2021/08/13 06:28:14;;;;;;;8.48;7.60;;;;;;;22.82;83.91;99115.16;5004651;27;104050;-60
2021/08/13 06:30:44;;;;;;;10.07;9.18;;;;;;;22.81;82.66;99124.25;5003332;27;102740;-60
2021/08/13 06:33:13;;;;;;;9.25;7.30;;;;;;;22.78;83.99;99113.84;4999800;27;102725;-60
2021/08/13 06:35:41;;;;;;;9.60;8.68;;;;;;;22.63;84.45;99110.19;5014214;27;103288;-60
2021/08/13 06:38:09;;;;;;;14.57;11.35;;;;;;;22.55;85.13;99119.16;5008270;27;104351;-60
2021/08/13 06:40:42;;;;;;;10.23;9.32;;;;;;;22.64;85.38;99120.81;5004911;27;102696;-61
2021/08/13 06:43:10;;;;;;;11.90;10.70;;;;;;;23.02;83.35;99116.34;4998327;27;103018;-61
2021/08/13 06:45:45;;;;;;;9.40;8.57;;;;;;;23.24;82.19;99120.06;5010227;27;103429;-61
2021/08/13 06:48:21;;;;;;;9.73;8.82;;;;;;;23.48;80.13;99119.88;5005717;27;104118;-60
2021/08/13 06:50:50;;;;;;;11.13;10.00;;;;;;;23.70;79.77;99119.00;5003168;27;103062;-61
2021/08/13 06:53:18;;;;;;;10.93;9.90;;;;;;;23.86;78.65;99123.41;5013756;27;104325;-61
2021/08/13 06:55:47;;;;;;;9.85;8.93;;;;;;;24.06;78.69;99121.78;4997753;27;103298;-61
2021/08/13 06:58:16;;;;;;;9.73;8.77;;;;;;;24.12;77.54;99126.50;5010465;27;103246;-61
2021/08/13 07:00:48;;;;;;;10.07;9.07;;;;;;;24.28;76.50;99131.69;5011813;27;102594;-61
2021/08/13 07:03:16;;;;;;;9.05;8.23;;;;;;;24.25;77.41;99132.09;5018917;27;104127;-60
2021/08/13 07:05:44;;;;;;;9.52;8.48;;;;;;;24.45;76.24;99133.16;5009541;27;102666;-60
2021/08/13 07:08:14;;;;;;;10.60;9.57;;;;;;;24.47;76.06;99125.72;4997332;27;103270;-61
2021/08/13 07:10:51;;;;;;;11.93;10.50;;;;;;;24.40;75.37;99135.59;5007332;27;103107;-61
2021/08/13 07:13:19;;;;;;;9.65;8.65;;;;;;;24.38;75.93;99139.50;5009858;27;102730;-61
2021/08/13 07:15:47;;;;;;;14.55;11.57;;;;;;;23.94;76.68;99142.19;5007222;27;104167;-60
2021/08/13 07:18:15;;;;;;;12.57;11.35;;;;;;;24.17;77.84;99146.50;4999453;27;103226;-61
2021/08/13 07:20:43;;;;;;;13.43;10.18;;;;;;;24.48;76.22;99138.19;5006340;27;102834;-60
2021/08/13 07:23:11;;;;;;;9.70;8.80;;;;;;;24.96;74.54;99135.84;5014404;27;103052;-60
2021/08/13 07:25:41;;;;;;;16.45;12.48;;;;;;;24.81;73.99;99143.19;5002397;27;105382;-61
2021/08/13 07:28:10;;;;;;;10.00;8.93;;;;;;;25.05;74.14;99146.38;5008674;27;103025;-62
2021/08/13 07:30:43;;;;;;;10.18;8.98;;;;;;;25.44;72.81;99140.50;4999767;27;103385;-61
2021/08/13 07:33:11;;;;;;;13.35;9.70;;;;;;;25.42;72.51;99142.56;5009547;27;102836;-61
2021/08/13 07:35:39;;;;;;;12.27;11.07;;;;;;;25.14;73.46;99134.41;5000390;27;103284;-61
2021/08/13 07:38:08;;;;;;;10.90;9.65;;;;;;;25.81;72.50;99137.50;5010086;27;103463;-61
2021/08/13 07:40:38;;;;;;;11.68;10.45;;;;;;;25.78;71.10;99143.31;5012456;27;102605;-61
2021/08/13 07:43:07;;;;;;;11.70;10.43;;;;;;;25.52;73.19;99153.91;5016207;27;103964;-61
2021/08/13 07:45:38;;;;;;;13.80;12.45;;;;;;;24.69;75.78;99153.63;5010422;27;103276;-62
2021/08/13 07:48:07;;;;;;;11.95;10.75;;;;;;;25.50;74.29;99145.16;5014277;27;103120;-60
2021/08/13 07:50:37;;;;;;;17.35;12.70;;;;;;;24.87;74.58;99143.25;5003342;27;102705;-61
2021/08/13 07:53:05;;;;;;;10.80;9.80;;;;;;;25.75;72.76;99154.53;4998733;27;104049;-62
2021/08/13 07:55:35;;;;;;;17.52;11.23;;;;;;;26.25;71.27;99149.88;5015851;27;103504;-63
2021/08/13 07:58:03;;;;;;;10.82;9.75;;;;;;;26.36;71.12;99157.44;5009097;27;103456;-62
2021/08/13 08:00:32;;;;;;;12.45;11.23;;;;;;;25.89;70.49;99150.03;4996897;27;103562;-62
2021/08/13 08:03:02;;;;;;;12.27;11.07;;;;;;;26.87;67.95;99161.44;5018887;27;102719;-63
2021/08/13 08:05:30;;;;;;;12.23;10.95;;;;;;;26.38;69.44;99158.09;5013746;27;103244;-62
2021/08/13 08:07:58;;;;;;;12.77;11.60;;;;;;;26.74;67.73;99164.09;5012482;27;103140;-62
2021/08/13 08:10:27;;;;;;;10.98;9.88;;;;;;;27.44;67.37;99162.84;5014669;27;102855;-62
2021/08/13 08:12:55;;;;;;;13.10;10.32;;;;;;;27.27;66.78;99166.97;5014774;27;103885;-62
2021/08/13 08:15:23;;;;;;;16.20;12.05;;;;;;;26.80;67.82;99173.31;5012087;27;103233;-62
2021/08/13 08:17:52;;;;;;;12.02;10.82;;;;;;;27.64;66.96;99169.13;5017892;27;103040;-62
2021/08/13 08:20:22;;;;;;;11.70;10.27;;;;;;;27.95;65.23;99172.03;5014009;27;102717;-61
2021/08/13 08:22:50;;;;;;;11.68;10.55;;;;;;;28.10;64.65;99186.22;5017184;27;104073;-62
2021/08/13 08:25:19;;;;;;;10.52;9.52;;;;;;;26.71;66.66;99180.75;5017300;27;104540;-61
2021/08/13 08:27:47;;;;;;;10.85;9.75;;;;;;;27.00;67.47;99183.16;5016656;27;103586;-63
2021/08/13 08:30:16;;;;;;;8.57;7.80;;;;;;;27.96;65.35;99184.53;5019250;27;102723;-63
2021/08/13 08:32:44;;;;;;;10.82;9.77;;;;;;;27.45;66.10;99186.22;5018373;27;103919;-74
2021/08/13 08:35:12;;;;;;;10.38;9.43;;;;;;;27.42;66.77;99183.94;5019285;27;103908;-62
2021/08/13 08:37:58;;;;;;;11.27;9.93;;;;;;;27.73;62.85;99180.59;5021879;27;104259;-62
2021/08/13 08:40:28;;;;;;;12.10;10.43;;;;;;;28.19;64.11;99184.97;5020456;27;102734;-63
2021/08/13 08:42:58;;;;;;;10.45;9.35;;;;;;;27.30;65.62;99180.13;5022649;27;102673;-62
2021/08/13 08:45:27;;;;;;;9.73;8.80;;;;;;;27.38;66.32;99182.63;5022276;27;103344;-74
2021/08/13 08:47:59;;;;;;;10.07;8.70;;;;;;;28.22;62.15;99182.88;5030296;27;103202;-74
2021/08/13 08:50:29;;;;;;;9.88;8.90;;;;;;;28.92;60.34;99179.31;5023330;27;102744;-75
2021/08/13 08:53:02;;;;;;;10.30;9.30;;;;;;;28.91;59.93;99178.50;5025524;27;103734;-75
2021/08/13 08:55:32;;;;;;;10.23;8.80;;;;;;;28.58;61.55;99166.88;5025981;27;103313;-74
2021/08/13 08:58:02;;;;;;;13.48;9.93;;;;;;;29.20;58.92;99167.03;5022068;27;102668;-76
2021/08/13 09:00:30;;;;;;;9.70;8.82;;;;;;;29.49;59.22;99164.78;5024641;27;103251;-76
2021/08/13 09:02:59;;;;;;;9.65;8.65;;;;;;;30.24;58.01;99169.97;5023778;27;103117;-73
2021/08/13 09:05:27;;;;;;;8.73;7.93;;;;;;;30.93;55.19;99177.00;5020031;27;103318;-64
2021/08/13 09:07:55;;;;;;;9.27;7.35;;;;;;;31.66;53.80;99182.25;5022821;27;103247;-64
2021/08/13 09:10:24;;;;;;;9.88;7.97;;;;;;;31.19;54.14;99184.78;5021354;27;102721;-62
2021/08/13 09:12:53;;;;;;;9.98;9.07;;;;;;;30.98;54.57;99188.88;5019469;27;102937;-62
2021/08/13 09:15:30;;;;;;;9.98;8.98;;;;;;;30.65;54.00;99187.59;5020152;27;103076;-63
2021/08/13 09:18:11;;;;;;;9.10;8.10;;;;;;;31.23;53.76;99177.81;5024806;27;103115;-63
2021/08/13 09:20:41;;;;;;;8.77;7.97;;;;;;;31.58;52.22;99180.66;5020989;27;102740;-63
2021/08/13 09:23:09;;;;;;;10.02;9.00;;;;;;;29.19;57.47;99181.66;5023001;27;102963;-62
2021/08/13 09:25:38;;;;;;;11.40;8.40;;;;;;;30.02;55.74;99174.19;5022802;27;103149;-64
2021/08/13 09:28:42;;;;;;;8.50;7.22;;;;;;;31.69;53.98;99173.59;5026550;27;104528;-64
2021/08/13 09:31:14;;;;;;;9.88;8.27;;;;;;;31.20;52.78;99175.56;5009305;27;102617;-64
2021/08/13 09:33:45;;;;;;;7.72;6.93;;;;;;;31.60;53.07;99183.19;5027843;27;103072;-64
2021/08/13 09:36:13;;;;;;;8.23;7.43;;;;;;;32.39;52.83;99178.03;5022455;27;103934;-63
2021/08/13 09:38:42;;;;;;;8.70;7.55;;;;;;;32.69;51.26;99180.59;5011917;27;103361;-76
2021/08/13 09:41:13;;;;;;;8.60;7.80;;;;;;;32.27;51.29;99173.63;5013045;27;102710;-76
2021/08/13 09:44:00;;;;;;;12.38;8.50;;;;;;;32.27;50.10;99185.41;5016042;27;102920;-75
2021/08/13 09:46:30;;;;;;;6.32;5.82;;;;;;;32.70;51.07;99183.09;5007488;27;104121;-76
2021/08/13 09:49:18;;;;;;;9.45;8.52;;;;;;;32.18;50.65;99184.09;5017552;27;103329;-63
2021/08/13 09:51:47;;;;;;;8.43;6.32;;;;;;;32.85;51.09;99176.28;5011156;27;102952;-63
2021/08/13 09:54:15;;;;;;;9.27;8.27;;;;;;;31.56;51.48;99185.53;5018668;27;102622;-62
2021/08/13 09:56:44;;;;;;;12.38;8.40;;;;;;;29.96;54.00;99183.25;5013071;27;104031;-64
2021/08/13 09:59:15;;;;;;;9.25;8.45;;;;;;;30.76;52.67;99171.31;5014438;27;103388;-63
2021/08/13 10:01:45;;;;;;;7.82;7.13;;;;;;;31.33;52.85;99169.06;5020924;27;102616;-64
2021/08/13 10:04:16;;;;;;;9.38;7.45;;;;;;;32.59;50.61;99172.19;5021018;27;102742;-64
2021/08/13 10:06:46;;;;;;;9.13;7.60;;;;;;;31.97;51.45;99177.28;5002409;27;103350;-64
2021/08/13 10:09:25;;;;;;;9.35;8.55;;;;;;;30.52;54.89;99176.81;5013876;27;103328;-64
2021/08/13 10:12:02;;;;;;;8.57;6.75;;;;;;;32.11;51.30;99178.72;5011337;27;103147;-63
2021/08/13 10:14:35;;;;;;;8.63;7.82;;;;;;;31.48;52.91;99178.53;5016396;27;102719;-76
2021/08/13 10:17:12;;;;;;;9.23;8.18;;;;;;;30.25;53.18;99182.56;5006010;27;103385;-76
2021/08/13 10:19:46;;;;;;;9.35;8.25;;;;;;;31.54;51.84;99177.59;5019749;27;103408;-76
2021/08/13 10:22:18;;;;;;;9.45;8.40;;;;;;;31.16;54.42;99174.34;5011605;27;102869;-77
2021/08/13 10:24:47;;;;;;;8.10;7.30;;;;;;;32.09;51.05;99171.84;5020687;27;104021;-64
2021/08/13 10:27:18;;;;;;;7.75;7.15;;;;;;;32.80;48.91;99171.53;5013535;27;103173;-64
2021/08/13 10:29:53;;;;;;;9.43;7.50;;;;;;;32.33;51.11;99170.78;5012963;27;103213;-64
2021/08/13 10:32:25;;;;;;;8.80;7.53;;;;;;;32.09;50.97;99169.13;5007809;27;102786;-63
2021/08/13 10:34:55;;;;;;;9.32;7.85;;;;;;;31.94;51.35;99174.22;5010841;27;102978;-75
2021/08/13 10:37:26;;;;;;;9.60;7.65;;;;;;;30.64;53.34;99185.91;5008852;27;104083;-75
2021/08/13 10:39:56;;;;;;;9.85;9.05;;;;;;;30.81;53.36;99176.06;5008667;27;102801;-77
2021/08/13 10:42:28;;;;;;;9.90;8.23;;;;;;;31.13;54.50;99180.25;5016136;27;103079;-64
2021/08/13 10:45:03;;;;;;;9.13;8.13;;;;;;;31.41;52.37;99182.41;5002952;27;102889;-64
2021/08/13 10:47:35;;;;;;;9.30;8.35;;;;;;;31.55;51.74;99179.25;5011800;27;104139;-76
2021/08/13 10:50:08;;;;;;;10.75;9.05;;;;;;;31.16;53.60;99174.34;5007044;27;103228;-64
2021/08/13 10:52:38;;;;;;;9.63;8.70;;;;;;;31.48;51.94;99178.53;4997369;27;102807;-65
2021/08/13 10:55:40;;;;;;;11.65;8.63;;;;;;;31.73;53.85;99169.31;5013497;27;102790;-64
2021/08/13 10:58:11;;;;;;;9.15;8.23;;;;;;;31.46;54.12;99164.25;4996674;27;104198;-64
2021/08/13 11:01:06;;;;;;;10.15;7.93;;;;;;;31.24;54.91;99159.56;5008130;27;102994;-76
2021/08/13 11:03:40;;;;;;;9.27;8.48;;;;;;;31.63;53.19;99158.97;5006321;27;103077;-76
2021/08/13 11:06:09;;;;;;;9.93;9.02;;;;;;;30.56;53.33;99159.81;5011321;27;102814;-77
2021/08/13 11:08:56;;;;;;;9.20;8.40;;;;;;;30.77;55.31;99156.59;5007819;27;103342;-76
2021/08/13 11:12:03;;;;;;;9.70;8.85;;;;;;;31.09;55.63;99151.78;4993725;27;103452;-73
2021/08/13 11:15:05;;;;;;;10.70;9.55;;;;;;;31.23;54.01;99157.88;5046974;27;104680;-76
2021/08/13 11:17:42;;;;;;;11.23;8.80;;;;;;;30.89;54.50;99162.09;5012675;27;105354;-78
2021/08/13 11:20:15;;;;;;;9.98;8.98;;;;;;;31.40;53.07;99153.44;5006928;27;105506;-79
2021/08/13 11:23:02;;;;;;;12.40;9.52;;;;;;;31.51;53.96;99145.31;5009549;27;104029;-78
2021/08/13 11:25:47;;;;;;;10.23;9.10;;;;;;;31.62;53.92;99145.53;5012887;27;103267;-78
2021/08/13 11:28:20;;;;;;;9.48;8.52;;;;;;;32.19;52.29;99147.50;5015584;27;104630;-77
2021/08/13 11:30:57;;;;;;;9.90;9.00;;;;;;;32.33;50.94;99148.06;5012315;27;106635;-78
2021/08/13 11:33:51;;;;;;;10.15;8.35;;;;;;;31.70;53.30;99153.38;5013972;27;106486;-78
2021/08/13 11:36:55;;;;;;;9.10;8.20;;;;;;;31.89;52.72;99146.78;5027770;27;107371;-83
2021/08/13 11:39:36;;;;;;;11.10;8.60;;;;;;;31.24;52.22;99152.22;5033765;27;104067;-76